createdAt,value
2023-02-18T00:00:18.499Z,98029.00
2023-02-18T00:05:20.313Z,98036.78
2023-02-18T00:10:22.198Z,98029.00
2023-02-18T00:15:24.051Z,98048.09
2023-02-18T00:20:25.850Z,98052.63
2023-02-18T00:25:27.616Z,98070.41
2023-02-18T00:30:29.616Z,98037.34
2023-02-18T00:35:31.479Z,98040.88
2023-02-18T00:40:33.269Z,98043.19
2023-02-18T00:45:35.129Z,98053.59
2023-02-18T00:50:36.932Z,98047.44
2023-02-18T00:55:40.525Z,98048.25
2023-02-18T01:00:42.768Z,98044.84
2023-02-18T01:05:44.795Z,98045.66
2023-02-18T01:10:49.031Z,98040.63
2023-02-18T01:15:51.385Z,98040.63
2023-02-18T01:20:53.592Z,98048.41
2023-02-18T01:25:56.252Z,98045.59
2023-02-18T01:30:58.076Z,98048.81
2023-02-18T01:36:00.552Z,98046.41
2023-02-18T01:41:02.806Z,98040.41
2023-02-18T01:46:26.840Z,98026.78
2023-02-18T01:51:37.087Z,98040.69
2023-02-18T01:57:07.552Z,98025.97
2023-02-18T02:02:14.675Z,98022.56
2023-02-18T02:07:18.694Z,98025.31
2023-02-18T02:12:23.949Z,98026.59
2023-02-18T02:17:46.393Z,98033.75
2023-02-18T02:23:06.344Z,98047.66
2023-02-18T02:28:14.334Z,98050.88
2023-02-18T02:33:37.460Z,98057.63
2023-02-18T02:39:03.789Z,98056.75
2023-02-18T02:44:20.851Z,98050.22
2023-02-18T02:49:58.942Z,98047.72
2023-02-18T02:55:03.786Z,98050.06
2023-02-18T03:00:10.344Z,98055.56
2023-02-18T03:05:30.867Z,98040.47
2023-02-18T03:10:39.798Z,98043.06
2023-02-18T03:15:56.566Z,98037.09
2023-02-18T03:21:09.333Z,98032.03
2023-02-18T03:26:12.716Z,98032.34
2023-02-18T03:31:18.484Z,98036.41
2023-02-18T03:36:22.426Z,98044.16
2023-02-18T03:41:24.437Z,98032.03
2023-02-18T03:46:27.938Z,98022.03
2023-02-18T03:51:30.356Z,98020.78
2023-02-18T03:56:32.331Z,98010.50
2023-02-18T04:01:34.270Z,98028.97
2023-02-18T04:06:36.241Z,98035.94
2023-02-18T04:11:39.532Z,98037.56
2023-02-18T04:16:41.903Z,98029.94
2023-02-18T04:21:43.707Z,98031.84
2023-02-18T04:26:45.494Z,98036.22
2023-02-18T04:31:47.359Z,98025.22
2023-02-18T04:36:49.164Z,98016.47
2023-02-18T04:41:50.993Z,98006.94
2023-02-18T04:46:52.779Z,98014.06
2023-02-18T04:51:54.597Z,98012.44
2023-02-18T04:56:56.475Z,98015.97
2023-02-18T05:01:58.390Z,98021.00
2023-02-18T05:07:00.192Z,98023.44
2023-02-18T05:12:02.198Z,97999.97
2023-02-18T05:17:03.956Z,97993.84
2023-02-18T05:22:05.768Z,97984.59
2023-02-18T05:27:07.600Z,97968.25
2023-02-18T05:32:09.453Z,97952.44
2023-02-18T05:37:11.319Z,97936.41
2023-02-18T05:42:13.173Z,97951.75
2023-02-18T05:47:15.233Z,97916.81
2023-02-18T05:52:17.313Z,97927.53
2023-02-18T05:57:19.095Z,97923.31
2023-02-18T06:02:20.973Z,97908.13
2023-02-18T06:07:22.918Z,97904.06
2023-02-18T06:12:24.802Z,97899.03
2023-02-18T06:17:26.577Z,97890.75
2023-02-18T06:22:28.589Z,97883.16
2023-02-18T06:27:30.374Z,97874.88
2023-02-18T06:32:32.189Z,97883.91
2023-02-18T06:37:34.177Z,97884.25
2023-02-18T06:42:35.985Z,97882.47
2023-02-18T06:47:37.784Z,97880.06
2023-02-18T06:52:39.587Z,97878.50
2023-02-18T06:57:43.673Z,97870.25
2023-02-18T07:02:45.628Z,97869.53
2023-02-18T07:07:47.454Z,97858.56
2023-02-18T07:12:49.576Z,97854.66
2023-02-18T07:17:52.106Z,97845.13
2023-02-18T07:22:54.350Z,97832.50
2023-02-18T07:27:56.713Z,97831.03
2023-02-18T07:32:58.547Z,97818.72
2023-02-18T07:38:00.344Z,97808.84
2023-02-18T07:43:02.103Z,97813.06
2023-02-18T07:48:04.274Z,97813.22
2023-02-18T07:53:07.098Z,97800.69
2023-02-18T07:58:08.969Z,97818.97
2023-02-18T08:03:11.153Z,97806.75
2023-02-18T08:08:20.464Z,97812.72
2023-02-18T08:13:22.587Z,97793.53
2023-02-18T08:18:26.104Z,97793.03
2023-02-18T08:23:27.972Z,97787.72
2023-02-18T08:28:29.797Z,97786.84
2023-02-18T08:33:32.362Z,97772.13
2023-02-18T08:38:34.113Z,97770.09
2023-02-18T08:43:36.677Z,97778.28
2023-02-18T08:48:38.628Z,97760.03
2023-02-18T08:53:40.507Z,97769.22
2023-02-18T08:58:42.696Z,97761.94
2023-02-18T09:03:44.749Z,97753.66
2023-02-18T09:08:46.629Z,97749.41
2023-02-18T09:13:48.467Z,97748.53
2023-02-18T09:18:50.415Z,97742.00
2023-02-18T09:23:52.638Z,97752.06
2023-02-18T09:28:56.722Z,97745.41
2023-02-18T09:34:01.051Z,97737.06
2023-02-18T09:39:03.013Z,97706.78
2023-02-18T09:44:18.308Z,97690.06
2023-02-18T09:49:25.362Z,97685.28
2023-02-18T09:54:27.552Z,97700.28
2023-02-18T09:59:31.472Z,97680.28
2023-02-18T10:04:50.990Z,97672.53
2023-02-18T10:09:55.384Z,97681.44
2023-02-18T10:15:00.446Z,97653.94
2023-02-18T10:20:06.305Z,97663.88
2023-02-18T10:25:18.947Z,97649.72
2023-02-18T10:30:43.276Z,97651.28
2023-02-18T10:35:51.260Z,97642.19
2023-02-18T10:41:02.029Z,97635.09
2023-02-18T10:46:22.290Z,97636.09
2023-02-18T10:51:29.504Z,97620.28
2023-02-18T10:56:49.387Z,97617.16
2023-02-18T11:02:05.482Z,97628.38
2023-02-18T11:07:14.523Z,97613.47
2023-02-18T11:12:26.222Z,97605.22
2023-02-18T11:17:31.277Z,97612.38
2023-02-18T11:22:37.029Z,97599.22
2023-02-18T11:27:44.076Z,97593.63
2023-02-18T11:32:48.894Z,97601.97
2023-02-18T11:37:52.098Z,97595.09
2023-02-18T11:43:07.532Z,97616.44
2023-02-18T11:48:23.867Z,97596.69
2023-02-18T11:53:36.300Z,97605.84
2023-02-18T11:58:43.764Z,97595.97
2023-02-18T12:04:05.798Z,97592.75
2023-02-18T12:09:20.635Z,97588.78
2023-02-18T12:14:24.251Z,97543.72
2023-02-18T12:19:44.403Z,97575.06
2023-02-18T12:24:52.385Z,97549.63
2023-02-18T12:30:15.639Z,97567.28
2023-02-18T12:35:41.700Z,97574.44
2023-02-18T12:41:01.888Z,97573.00
2023-02-18T12:46:36.594Z,97559.22
2023-02-18T12:51:38.361Z,97575.72
2023-02-18T12:56:54.087Z,97568.06
2023-02-18T13:02:20.113Z,97577.50
2023-02-18T13:07:37.963Z,97555.72
2023-02-18T13:12:59.493Z,97549.38
2023-02-18T13:18:04.958Z,97544.78
2023-02-18T13:23:14.014Z,97549.97
2023-02-18T13:28:40.814Z,97559.91
2023-02-18T13:34:10.705Z,97553.78
2023-02-18T13:39:22.415Z,97553.59
2023-02-18T13:44:24.992Z,97554.81
2023-02-18T13:49:33.914Z,97554.91
2023-02-18T13:54:44.914Z,97551.97
2023-02-18T13:59:57.166Z,97543.47
2023-02-18T14:05:08.634Z,97560.00
2023-02-18T14:10:35.587Z,97555.06
2023-02-18T14:15:57.706Z,97559.47
2023-02-18T14:21:36.954Z,97554.09
2023-02-18T14:26:47.103Z,97569.66
2023-02-18T14:31:54.207Z,97569.66
2023-02-18T14:37:08.214Z,97571.94
2023-02-18T14:42:28.223Z,97572.44
2023-02-18T14:47:39.171Z,97584.69
2023-02-18T14:52:57.884Z,97586.59
2023-02-18T14:58:03.903Z,97591.25
2023-02-18T15:03:16.769Z,97607.66
2023-02-18T15:08:19.907Z,97604.72
2023-02-18T15:13:29.732Z,97609.72
2023-02-18T15:18:44.840Z,97601.75
2023-02-18T15:23:47.321Z,97611.53
2023-02-18T15:29:01.349Z,97610.16
2023-02-18T15:34:09.178Z,97612.94
2023-02-18T15:39:11.117Z,97614.06
2023-02-18T15:44:22.121Z,97603.22
2023-02-18T15:49:24.832Z,97617.09
2023-02-18T15:54:27.466Z,97628.81
2023-02-18T15:59:32.572Z,97618.38
2023-02-18T16:04:38.861Z,97620.25
2023-02-18T16:09:40.781Z,97639.00
2023-02-18T16:14:48.618Z,97654.88
2023-02-18T16:20:04.277Z,97667.94
2023-02-18T16:25:14.591Z,97677.03
2023-02-18T16:30:23.286Z,97676.78
2023-02-18T16:35:32.747Z,97670.59
2023-02-18T16:40:41.457Z,97675.91
2023-02-18T16:45:55.989Z,97681.56
2023-02-18T16:51:02.558Z,97687.34
2023-02-18T16:56:04.788Z,97705.38
2023-02-18T17:01:06.768Z,97705.06
2023-02-18T17:06:08.967Z,97698.13
2023-02-18T17:11:36.675Z,97713.84
2023-02-18T17:16:38.801Z,97717.91
2023-02-18T17:21:41.615Z,97720.47
2023-02-18T17:26:43.979Z,97725.03
2023-02-18T17:31:47.494Z,97738.94
2023-02-18T17:36:49.546Z,97725.69
2023-02-18T17:41:51.446Z,97731.84
2023-02-18T17:46:59.027Z,97740.06
2023-02-18T17:52:02.464Z,97768.47
2023-02-18T17:57:04.328Z,97767.38
2023-02-18T18:02:24.880Z,97784.69
2023-02-18T18:07:26.717Z,97776.75
2023-02-18T18:12:30.277Z,97768.00
2023-02-18T18:17:32.206Z,97791.31
2023-02-18T18:22:33.996Z,97793.88
2023-02-18T18:27:35.806Z,97793.38
2023-02-18T18:32:37.631Z,97805.19
2023-02-18T18:37:39.434Z,97783.00
2023-02-18T18:42:41.287Z,97789.47
2023-02-18T18:47:43.300Z,97795.28
2023-02-18T18:52:45.808Z,97774.75
2023-02-18T18:57:47.790Z,97785.06
2023-02-18T19:02:49.701Z,97771.31
2023-02-18T19:07:51.725Z,97771.31
2023-02-18T19:12:53.622Z,97774.88
2023-02-18T19:17:55.519Z,97780.91
2023-02-18T19:22:57.358Z,97779.75
2023-02-18T19:27:59.217Z,97788.84
2023-02-18T19:33:06.011Z,97791.75
2023-02-18T19:38:13.720Z,97805.00
2023-02-18T19:43:15.701Z,97816.00
2023-02-18T19:48:17.606Z,97803.56
2023-02-18T19:53:19.444Z,97805.34
2023-02-18T19:58:21.248Z,97811.47
2023-02-18T20:03:23.202Z,97817.28
2023-02-18T20:08:25.046Z,97822.97
2023-02-18T20:13:27.441Z,97811.81
2023-02-18T20:18:29.227Z,97806.31
2023-02-18T20:23:31.019Z,97809.38
2023-02-18T20:28:32.842Z,97812.66
2023-02-18T20:33:34.661Z,97811.84
2023-02-18T20:38:37.446Z,97806.31
2023-02-18T20:43:39.495Z,97819.59
2023-02-18T20:48:41.404Z,97824.66
2023-02-18T20:53:44.324Z,97813.66
2023-02-18T20:58:46.868Z,97819.63
2023-02-18T21:03:49.264Z,97814.97
2023-02-18T21:08:53.318Z,97819.47
2023-02-18T21:13:56.749Z,97806.69
2023-02-18T21:18:59.267Z,97816.72
2023-02-18T21:24:01.293Z,97813.28
2023-02-18T21:29:05.890Z,97792.06
2023-02-18T21:34:11.739Z,97799.50
2023-02-18T21:39:13.571Z,97804.00
2023-02-18T21:44:15.437Z,97802.56
2023-02-18T21:49:17.644Z,97801.56
2023-02-18T21:54:21.928Z,97793.50
2023-02-18T21:59:26.906Z,97788.97
2023-02-18T22:04:30.953Z,97792.53
2023-02-18T22:09:32.818Z,97779.75
2023-02-18T22:14:35.954Z,97788.47
2023-02-18T22:19:37.875Z,97780.69
2023-02-18T22:24:39.682Z,97782.00
2023-02-18T22:29:41.535Z,97777.63
2023-02-18T22:34:43.304Z,97784.13
2023-02-18T22:39:45.086Z,97780.25
2023-02-18T22:44:46.937Z,97761.66
2023-02-18T22:49:48.730Z,97766.00
2023-02-18T22:54:50.510Z,97759.38
2023-02-18T22:59:52.440Z,97764.56
2023-02-18T23:04:54.232Z,97768.09
2023-02-18T23:09:56.070Z,97771.78
2023-02-18T23:14:57.863Z,97773.06
2023-02-18T23:19:59.758Z,97769.06
2023-02-18T23:25:02.189Z,97768.91
2023-02-18T23:30:04.273Z,97781.53
2023-02-18T23:35:06.426Z,97777.16
2023-02-18T23:40:08.974Z,97771.19
2023-02-18T23:45:10.781Z,97759.06
2023-02-18T23:50:16.322Z,97750.97
2023-02-18T23:55:18.228Z,97754.53
